LNR1633 OMDW-OOMS
Flight info
| Callsign | LNR1633 |
|---|---|
| Flight time | 0h 39m |
| Altitude | 33000 |
| Route | ANVIX L223 TARDI N629 MUSUK |
| Aircraft | B738/M-SDE2E3FGHIRWXY/LB1 |
Departure
| Time | 2026-05-05 22:58 |
|---|---|
| Airport | Al Maktoum International Airport (OMDW) |
Arrival
| Time | 2026-05-05 23:37 |
|---|---|
| Airport | Muscat International Airport (OOMS) |
| Time | Latitude | Longitude | Altitude | Speed | Heading |
|---|---|---|---|---|---|
| 2026-05-05 22:37 | 24.88822 | 55.15216 | 162 ft | 0 kts | 303° |
| 2026-05-05 22:48 | 24.88818 | 55.15222 | 162 ft | 2 kts | 302° |
| 2026-05-05 22:48 | 24.88809 | 55.15237 | 162 ft | 2 kts | 305° |
| 2026-05-05 22:48 | 24.88799 | 55.15252 | 162 ft | 2 kts | 307° |
| 2026-05-05 22:48 | 24.88789 | 55.15266 | 162 ft | 2 kts | 309° |
| 2026-05-05 22:49 | 24.88778 | 55.15280 | 162 ft | 2 kts | 313° |
| 2026-05-05 22:49 | 24.88767 | 55.15292 | 162 ft | 2 kts | 321° |
| 2026-05-05 22:49 | 24.88753 | 55.15302 | 162 ft | 2 kts | 345° |
| 2026-05-05 22:49 | 24.88737 | 55.15301 | 163 ft | 2 kts | 28° |
| 2026-05-05 22:50 | 24.88724 | 55.15293 | 163 ft | 1 kts | 30° |
| 2026-05-05 22:50 | 24.88723 | 55.15293 | 163 ft | 0 kts | 30° |
| 2026-05-05 22:51 | 24.88734 | 55.15299 | 163 ft | 5 kts | 31° |
| 2026-05-05 22:51 | 24.88792 | 55.15338 | 162 ft | 14 kts | 31° |
| 2026-05-05 22:52 | 24.88889 | 55.15408 | 161 ft | 18 kts | 40° |
| 2026-05-05 22:52 | 24.88962 | 55.15516 | 160 ft | 17 kts | 58° |
| 2026-05-05 22:52 | 24.89037 | 55.15616 | 159 ft | 17 kts | 39° |
| 2026-05-05 22:52 | 24.89135 | 55.15683 | 159 ft | 16 kts | 31° |
| 2026-05-05 22:53 | 24.89230 | 55.15746 | 158 ft | 16 kts | 31° |
| 2026-05-05 22:53 | 24.89321 | 55.15806 | 158 ft | 15 kts | 31° |
| 2026-05-05 22:53 | 24.89406 | 55.15864 | 158 ft | 14 kts | 33° |
| 2026-05-05 22:53 | 24.89411 | 55.15960 | 158 ft | 14 kts | 123° |
| 2026-05-05 22:54 | 24.89355 | 55.16061 | 158 ft | 18 kts | 121° |
| 2026-05-05 22:54 | 24.89277 | 55.16201 | 158 ft | 25 kts | 121° |
| 2026-05-05 22:54 | 24.89180 | 55.16375 | 157 ft | 28 kts | 121° |
| 2026-05-05 22:54 | 24.89081 | 55.16554 | 157 ft | 26 kts | 121° |
| 2026-05-05 22:55 | 24.88989 | 55.16720 | 157 ft | 24 kts | 121° |
| 2026-05-05 22:55 | 24.88905 | 55.16872 | 157 ft | 23 kts | 121° |
| 2026-05-05 22:55 | 24.88823 | 55.17020 | 157 ft | 22 kts | 121° |
| 2026-05-05 22:55 | 24.88744 | 55.17163 | 157 ft | 22 kts | 121° |
| 2026-05-05 22:56 | 24.88666 | 55.17303 | 157 ft | 18 kts | 121° |
| 2026-05-05 22:56 | 24.88626 | 55.17401 | 157 ft | 13 kts | 91° |
| 2026-05-05 22:56 | 24.88685 | 55.17469 | 157 ft | 12 kts | 31° |
| 2026-05-05 22:56 | 24.88761 | 55.17519 | 157 ft | 13 kts | 28° |
| 2026-05-05 22:57 | 24.88829 | 55.17560 | 157 ft | 7 kts | 28° |
| 2026-05-05 22:57 | 24.88863 | 55.17547 | 158 ft | 6 kts | 303° |
| 2026-05-05 22:57 | 24.88894 | 55.17493 | 158 ft | 14 kts | 302° |
| 2026-05-05 22:57 | 24.89079 | 55.17160 | 158 ft | 92 kts | 301° |
| 2026-05-05 22:58 | 24.89531 | 55.16339 | 171 ft | 156 kts | 300° |
| 2026-05-05 22:58 | 24.90103 | 55.15281 | 814 ft | 163 kts | 301° |
| 2026-05-05 22:58 | 24.90693 | 55.14215 | 1602 ft | 163 kts | 303° |
| 2026-05-05 22:58 | 24.91308 | 55.13128 | 2331 ft | 165 kts | 304° |
| 2026-05-05 22:59 | 24.91924 | 55.12024 | 2682 ft | 169 kts | 303° |
| 2026-05-05 22:59 | 24.92529 | 55.10927 | 3258 ft | 167 kts | 303° |
| 2026-05-05 22:59 | 24.93163 | 55.09781 | 3753 ft | 194 kts | 303° |
| 2026-05-05 22:59 | 24.93925 | 55.08409 | 4010 ft | 225 kts | 303° |
| 2026-05-05 23:00 | 24.95450 | 55.05159 | 5259 ft | 248 kts | 279° |
| 2026-05-05 23:00 | 24.95239 | 55.03276 | 6173 ft | 252 kts | 247° |
| 2026-05-05 23:00 | 24.94127 | 55.01790 | 7060 ft | 255 kts | 216° |
| 2026-05-05 23:01 | 24.92641 | 55.00755 | 7991 ft | 256 kts | 210° |
| 2026-05-05 23:01 | 24.90947 | 55.00085 | 8834 ft | 263 kts | 182° |
| 2026-05-05 23:01 | 24.89180 | 55.00467 | 9897 ft | 260 kts | 152° |
| 2026-05-05 23:01 | 24.87802 | 55.01739 | 10837 ft | 263 kts | 127° |
| 2026-05-05 23:02 | 24.86788 | 55.03443 | 11726 ft | 269 kts | 120° |
| 2026-05-05 23:02 | 24.86185 | 55.05412 | 12583 ft | 278 kts | 92° |
| 2026-05-05 23:02 | 24.86427 | 55.07623 | 12987 ft | 306 kts | 77° |
| 2026-05-05 23:02 | 24.86944 | 55.10015 | 13341 ft | 332 kts | 76° |
| 2026-05-05 23:03 | 24.87483 | 55.12495 | 14074 ft | 341 kts | 76° |
| 2026-05-05 23:03 | 24.88015 | 55.15057 | 14984 ft | 344 kts | 77° |
| 2026-05-05 23:03 | 24.88540 | 55.17648 | 15934 ft | 348 kts | 76° |
| 2026-05-05 23:03 | 24.89274 | 55.20199 | 16847 ft | 351 kts | 67° |
| 2026-05-05 23:04 | 24.90244 | 55.22688 | 17752 ft | 356 kts | 65° |
| 2026-05-05 23:04 | 24.91241 | 55.25214 | 18570 ft | 361 kts | 65° |
| 2026-05-05 23:04 | 24.92229 | 55.27784 | 19302 ft | 368 kts | 66° |
| 2026-05-05 23:04 | 24.93216 | 55.30418 | 20029 ft | 374 kts | 66° |
| 2026-05-05 23:05 | 24.94205 | 55.33094 | 20751 ft | 380 kts | 66° |
| 2026-05-05 23:05 | 24.95209 | 55.35817 | 21488 ft | 386 kts | 66° |
| 2026-05-05 23:05 | 24.95513 | 55.36640 | 21705 ft | 388 kts | 66° |
| 2026-05-05 23:05 | 24.96506 | 55.39331 | 22396 ft | 394 kts | 66° |
| 2026-05-05 23:06 | 24.97530 | 55.42148 | 23091 ft | 400 kts | 68° |
| 2026-05-05 23:06 | 24.98516 | 55.45038 | 23699 ft | 406 kts | 68° |
| 2026-05-05 23:06 | 24.99500 | 55.47971 | 24265 ft | 411 kts | 68° |
| 2026-05-05 23:06 | 25.00500 | 55.50944 | 24841 ft | 416 kts | 69° |
| 2026-05-05 23:07 | 25.01105 | 55.54086 | 25366 ft | 424 kts | 88° |
| 2026-05-05 23:07 | 25.00735 | 55.57319 | 25953 ft | 428 kts | 107° |
| 2026-05-05 23:07 | 24.99501 | 55.60302 | 26540 ft | 430 kts | 122° |
| 2026-05-05 23:07 | 24.97916 | 55.63115 | 27089 ft | 434 kts | 124° |
| 2026-05-05 23:08 | 24.96303 | 55.65955 | 27606 ft | 440 kts | 123° |
| 2026-05-05 23:08 | 24.94703 | 55.68853 | 28125 ft | 445 kts | 123° |
| 2026-05-05 23:08 | 24.93042 | 55.71753 | 28654 ft | 448 kts | 127° |
| 2026-05-05 23:08 | 24.91208 | 55.74551 | 29173 ft | 452 kts | 129° |
| 2026-05-05 23:09 | 24.89301 | 55.77320 | 29698 ft | 455 kts | 130° |
| 2026-05-05 23:09 | 24.87388 | 55.80112 | 30264 ft | 456 kts | 129° |
| 2026-05-05 23:09 | 24.85511 | 55.82912 | 30916 ft | 453 kts | 129° |
| 2026-05-05 23:09 | 24.83659 | 55.85704 | 31574 ft | 450 kts | 129° |
| 2026-05-05 23:10 | 24.81817 | 55.88453 | 31933 ft | 454 kts | 130° |
| 2026-05-05 23:10 | 24.79933 | 55.91239 | 32181 ft | 453 kts | 130° |
| 2026-05-05 23:10 | 24.78040 | 55.94003 | 32420 ft | 448 kts | 133° |
| 2026-05-05 23:10 | 24.75918 | 55.96456 | 32657 ft | 440 kts | 142° |
| 2026-05-05 23:11 | 24.73634 | 55.98686 | 32804 ft | 441 kts | 143° |
| 2026-05-05 23:11 | 24.71322 | 56.00931 | 32797 ft | 443 kts | 142° |
| 2026-05-05 23:11 | 24.67568 | 56.04741 | 32807 ft | 440 kts | 141° |
| 2026-05-05 23:12 | 24.63091 | 56.09343 | 32819 ft | 440 kts | 141° |
| 2026-05-05 23:12 | 24.58616 | 56.13928 | 32825 ft | 440 kts | 141° |
| 2026-05-05 23:13 | 24.54363 | 56.18790 | 32827 ft | 443 kts | 134° |
| 2026-05-05 23:13 | 24.50377 | 56.23976 | 32824 ft | 444 kts | 134° |
| 2026-05-05 23:14 | 24.46393 | 56.29144 | 32814 ft | 443 kts | 134° |
| 2026-05-05 23:14 | 24.42400 | 56.34240 | 32793 ft | 443 kts | 134° |
| 2026-05-05 23:15 | 24.38375 | 56.39350 | 32781 ft | 443 kts | 134° |
| 2026-05-05 23:15 | 24.34346 | 56.44461 | 32778 ft | 443 kts | 134° |
| 2026-05-05 23:16 | 24.30311 | 56.49577 | 32768 ft | 444 kts | 134° |
| 2026-05-05 23:16 | 24.26527 | 56.54985 | 32155 ft | 448 kts | 129° |
| 2026-05-05 23:17 | 24.24720 | 56.57758 | 31587 ft | 447 kts | 128° |
| 2026-05-05 23:17 | 24.22918 | 56.60537 | 30995 ft | 448 kts | 128° |
| 2026-05-05 23:17 | 24.21104 | 56.63318 | 30365 ft | 449 kts | 128° |
| 2026-05-05 23:17 | 24.19283 | 56.66086 | 29875 ft | 447 kts | 128° |
| 2026-05-05 23:18 | 24.17463 | 56.68837 | 29295 ft | 444 kts | 128° |
| 2026-05-05 23:18 | 24.15654 | 56.71561 | 28774 ft | 440 kts | 128° |
| 2026-05-05 23:18 | 24.13862 | 56.74254 | 28249 ft | 436 kts | 128° |
| 2026-05-05 23:18 | 24.12083 | 56.76924 | 27746 ft | 432 kts | 127° |
| 2026-05-05 23:19 | 24.10321 | 56.79569 | 27255 ft | 428 kts | 127° |
| 2026-05-05 23:19 | 24.08576 | 56.82187 | 26764 ft | 424 kts | 127° |
| 2026-05-05 23:19 | 24.06846 | 56.84782 | 26267 ft | 420 kts | 127° |
| 2026-05-05 23:19 | 24.05130 | 56.87354 | 25781 ft | 417 kts | 127° |
| 2026-05-05 23:20 | 24.03425 | 56.89906 | 25336 ft | 413 kts | 127° |
| 2026-05-05 23:20 | 24.01738 | 56.92420 | 24946 ft | 408 kts | 127° |
| 2026-05-05 23:20 | 24.00061 | 56.94913 | 24477 ft | 405 kts | 127° |
| 2026-05-05 23:20 | 23.98392 | 56.97392 | 23990 ft | 404 kts | 127° |
| 2026-05-05 23:21 | 23.96752 | 56.99829 | 23513 ft | 402 kts | 126° |
| 2026-05-05 23:21 | 23.95100 | 57.02284 | 22962 ft | 400 kts | 126° |
| 2026-05-05 23:21 | 23.93456 | 57.04728 | 22441 ft | 397 kts | 126° |
| 2026-05-05 23:21 | 23.91827 | 57.07147 | 21943 ft | 393 kts | 126° |
| 2026-05-05 23:22 | 23.90216 | 57.09538 | 21476 ft | 389 kts | 126° |
| 2026-05-05 23:22 | 23.88657 | 57.11936 | 21047 ft | 384 kts | 121° |
| 2026-05-05 23:22 | 23.87482 | 57.14537 | 20460 ft | 383 kts | 113° |
| 2026-05-05 23:22 | 23.86428 | 57.17238 | 19655 ft | 389 kts | 112° |
| 2026-05-05 23:23 | 23.85382 | 57.19971 | 19019 ft | 389 kts | 112° |
| 2026-05-05 23:23 | 23.84341 | 57.22687 | 18529 ft | 385 kts | 112° |
| 2026-05-05 23:23 | 23.83305 | 57.25366 | 18089 ft | 380 kts | 112° |
| 2026-05-05 23:23 | 23.82275 | 57.28008 | 17530 ft | 376 kts | 112° |
| 2026-05-05 23:24 | 23.81248 | 57.30626 | 16855 ft | 375 kts | 112° |
| 2026-05-05 23:24 | 23.80223 | 57.33228 | 16035 ft | 380 kts | 112° |
| 2026-05-05 23:24 | 23.79176 | 57.35880 | 15375 ft | 379 kts | 112° |
| 2026-05-05 23:24 | 23.78139 | 57.38504 | 14836 ft | 374 kts | 112° |
| 2026-05-05 23:25 | 23.77114 | 57.41092 | 14362 ft | 368 kts | 112° |
| 2026-05-05 23:25 | 23.76106 | 57.43637 | 13840 ft | 364 kts | 112° |
| 2026-05-05 23:25 | 23.75103 | 57.46167 | 13243 ft | 362 kts | 112° |
| 2026-05-05 23:25 | 23.74108 | 57.48678 | 12628 ft | 359 kts | 112° |
| 2026-05-05 23:26 | 23.73119 | 57.51171 | 12038 ft | 356 kts | 112° |
| 2026-05-05 23:26 | 23.72138 | 57.53644 | 11463 ft | 354 kts | 113° |
| 2026-05-05 23:26 | 23.71164 | 57.56097 | 10898 ft | 351 kts | 113° |
| 2026-05-05 23:26 | 23.70205 | 57.58509 | 10634 ft | 340 kts | 113° |
| 2026-05-05 23:27 | 23.69283 | 57.60829 | 10489 ft | 326 kts | 112° |
| 2026-05-05 23:27 | 23.68399 | 57.63050 | 10352 ft | 313 kts | 112° |
| 2026-05-05 23:27 | 23.67548 | 57.65189 | 10233 ft | 301 kts | 112° |
| 2026-05-05 23:27 | 23.66729 | 57.67246 | 10104 ft | 291 kts | 112° |
| 2026-05-05 23:28 | 23.65937 | 57.69232 | 9987 ft | 281 kts | 112° |
| 2026-05-05 23:28 | 23.65170 | 57.71158 | 9857 ft | 273 kts | 112° |
| 2026-05-05 23:28 | 23.64421 | 57.73040 | 9632 ft | 269 kts | 112° |
| 2026-05-05 23:28 | 23.63679 | 57.74900 | 9371 ft | 266 kts | 112° |
| 2026-05-05 23:29 | 23.62943 | 57.76747 | 9073 ft | 266 kts | 112° |
| 2026-05-05 23:29 | 23.62207 | 57.78594 | 8752 ft | 266 kts | 113° |
| 2026-05-05 23:29 | 23.61468 | 57.80444 | 8446 ft | 266 kts | 113° |
| 2026-05-05 23:29 | 23.60732 | 57.82292 | 8127 ft | 266 kts | 113° |
| 2026-05-05 23:30 | 23.60010 | 57.84139 | 7885 ft | 263 kts | 113° |
| 2026-05-05 23:30 | 23.59305 | 57.85966 | 7644 ft | 260 kts | 113° |
| 2026-05-05 23:30 | 23.58614 | 57.87781 | 7392 ft | 258 kts | 113° |
| 2026-05-05 23:30 | 23.57926 | 57.89614 | 6936 ft | 266 kts | 113° |
| 2026-05-05 23:31 | 23.57240 | 57.91465 | 6332 ft | 271 kts | 113° |
| 2026-05-05 23:31 | 23.56584 | 57.93407 | 5747 ft | 272 kts | 103° |
| 2026-05-05 23:31 | 23.56612 | 57.95436 | 5407 ft | 268 kts | 82° |
| 2026-05-05 23:31 | 23.56873 | 57.97446 | 5069 ft | 266 kts | 85° |
| 2026-05-05 23:32 | 23.57037 | 57.99420 | 4732 ft | 257 kts | 87° |
| 2026-05-05 23:32 | 23.57178 | 58.01340 | 4390 ft | 250 kts | 88° |
| 2026-05-05 23:32 | 23.57319 | 58.03207 | 4086 ft | 244 kts | 88° |
| 2026-05-05 23:32 | 23.57461 | 58.05030 | 3762 ft | 238 kts | 88° |
| 2026-05-05 23:33 | 23.57600 | 58.06810 | 3472 ft | 233 kts | 89° |
| 2026-05-05 23:33 | 23.57736 | 58.08552 | 3184 ft | 228 kts | 89° |
| 2026-05-05 23:33 | 23.57870 | 58.10243 | 2931 ft | 220 kts | 89° |
| 2026-05-05 23:33 | 23.57998 | 58.11880 | 2636 ft | 213 kts | 89° |
| 2026-05-05 23:34 | 23.58122 | 58.13441 | 2350 ft | 199 kts | 89° |
| 2026-05-05 23:34 | 23.58234 | 58.14880 | 2113 ft | 183 kts | 89° |
| 2026-05-05 23:34 | 23.58339 | 58.16205 | 1911 ft | 166 kts | 89° |
| 2026-05-05 23:34 | 23.58435 | 58.17414 | 1657 ft | 153 kts | 89° |
| 2026-05-05 23:35 | 23.58520 | 58.18534 | 1449 ft | 147 kts | 88° |
| 2026-05-05 23:35 | 23.58607 | 58.19642 | 1278 ft | 147 kts | 88° |
| 2026-05-05 23:35 | 23.58692 | 58.20744 | 1101 ft | 147 kts | 88° |
| 2026-05-05 23:35 | 23.58781 | 58.21860 | 935 ft | 147 kts | 86° |
| 2026-05-05 23:36 | 23.58867 | 58.22968 | 778 ft | 146 kts | 85° |
| 2026-05-05 23:36 | 23.58958 | 58.24060 | 595 ft | 144 kts | 85° |
| 2026-05-05 23:36 | 23.59047 | 58.25150 | 424 ft | 146 kts | 85° |
| 2026-05-05 23:36 | 23.59133 | 58.26250 | 256 ft | 146 kts | 85° |
| 2026-05-05 23:37 | 23.59223 | 58.27352 | 47 ft | 142 kts | 85° |
| 2026-05-05 23:37 | 23.59302 | 58.28333 | 43 ft | 113 kts | 85° |
| 2026-05-05 23:37 | 23.59360 | 58.29057 | 42 ft | 78 kts | 85° |
| 2026-05-05 23:37 | 23.59397 | 58.29510 | 44 ft | 43 kts | 85° |
| 2026-05-05 23:38 | 23.59416 | 58.29723 | 44 ft | 21 kts | 83° |
| 2026-05-05 23:38 | 23.59429 | 58.29877 | 45 ft | 20 kts | 86° |
| 2026-05-05 23:38 | 23.59438 | 58.29985 | 42 ft | 4 kts | 76° |
| 2026-05-05 23:38 | 23.59441 | 58.30032 | 43 ft | 9 kts | 86° |
| 2026-05-05 23:39 | 23.59461 | 58.30117 | 41 ft | 13 kts | 46° |
| 2026-05-05 23:39 | 23.59542 | 58.30165 | 43 ft | 13 kts | 8° |
| 2026-05-05 23:39 | 23.59631 | 58.30162 | 44 ft | 13 kts | 16° |
| 2026-05-05 23:39 | 23.59663 | 58.30254 | 43 ft | 16 kts | 86° |
| 2026-05-05 23:40 | 23.59700 | 58.30361 | 44 ft | 16 kts | 19° |
| 2026-05-05 23:40 | 23.59752 | 58.30287 | 44 ft | 14 kts | 265° |
| 2026-05-05 23:40 | 23.59769 | 58.30236 | 44 ft | 3 kts | 356° |
| 2026-05-05 23:40 | 23.59793 | 58.30234 | 44 ft | 4 kts | 355° |
| 2026-05-05 23:41 | 23.59829 | 58.30230 | 44 ft | 4 kts | 354° |
| 2026-05-05 23:41 | 23.59843 | 58.30229 | 44 ft | 0 kts | 354° |